Terminal Aerodrome Forecast
Issued by NWS Topeka, KS

Home | Current Version | Previous Version | Text Only | Print | Product List | Glossary On
Versions: 1 2 3 4 5 6 7 8 9 10 11 12 13 14 15 16 17 18 19 20
000
FTUS43 KTOP 291734
TAFTOP
TAF
KTOP 291734Z 2918/3018 35006KT P6SM BKN015
     FM300000 02005KT P6SM SCT020
     FM300600 00000KT 5SM BR SCT018
     FM301000 00000KT 2SM BR BKN009
     FM301500 07004KT P6SM BKN015=

USA.gov is the U.S. government's official web portal to all federal, state and local government web resources and services.